sensor_id;sensor_type;location;lat;lon;timestamp;temperature;humidity
12708;DHT22;6418;50.824;4.718;2023-11-21T00:01:10;9.00;99.90
12708;DHT22;6418;50.824;4.718;2023-11-21T00:03:37;9.00;99.90
12708;DHT22;6418;50.824;4.718;2023-11-21T00:06:06;9.00;99.90
12708;DHT22;6418;50.824;4.718;2023-11-21T00:08:34;9.00;99.90
12708;DHT22;6418;50.824;4.718;2023-11-21T00:11:01;9.00;99.90
12708;DHT22;6418;50.824;4.718;2023-11-21T00:13:30;8.90;99.90
12708;DHT22;6418;50.824;4.718;2023-11-21T00:15:57;8.90;99.90
12708;DHT22;6418;50.824;4.718;2023-11-21T00:18:24;9.00;99.90
12708;DHT22;6418;50.824;4.718;2023-11-21T00:20:51;8.90;99.90
12708;DHT22;6418;50.824;4.718;2023-11-21T00:23:19;9.00;99.90
12708;DHT22;6418;50.824;4.718;2023-11-21T00:25:46;8.90;99.90
12708;DHT22;6418;50.824;4.718;2023-11-21T00:28:13;9.00;99.90
12708;DHT22;6418;50.824;4.718;2023-11-21T00:30:40;9.00;99.90
12708;DHT22;6418;50.824;4.718;2023-11-21T00:33:07;9.00;99.90
12708;DHT22;6418;50.824;4.718;2023-11-21T00:35:34;8.90;99.90
12708;DHT22;6418;50.824;4.718;2023-11-21T00:38:01;8.90;99.90
12708;DHT22;6418;50.824;4.718;2023-11-21T00:40:30;8.90;99.90
12708;DHT22;6418;50.824;4.718;2023-11-21T00:42:58;8.90;99.90
12708;DHT22;6418;50.824;4.718;2023-11-21T00:45:25;8.90;99.90
12708;DHT22;6418;50.824;4.718;2023-11-21T00:47:52;8.90;99.90
12708;DHT22;6418;50.824;4.718;2023-11-21T00:50:19;8.90;99.90
12708;DHT22;6418;50.824;4.718;2023-11-21T00:52:46;8.90;99.90
12708;DHT22;6418;50.824;4.718;2023-11-21T00:55:13;8.90;99.90
12708;DHT22;6418;50.824;4.718;2023-11-21T00:57:41;8.90;99.90
12708;DHT22;6418;50.824;4.718;2023-11-21T01:00:09;8.90;99.90
12708;DHT22;6418;50.824;4.718;2023-11-21T01:02:39;8.90;99.90
12708;DHT22;6418;50.824;4.718;2023-11-21T01:05:06;8.80;99.90
12708;DHT22;6418;50.824;4.718;2023-11-21T01:07:34;8.80;99.90
12708;DHT22;6418;50.824;4.718;2023-11-21T01:10:02;8.80;99.90
12708;DHT22;6418;50.824;4.718;2023-11-21T01:12:31;8.70;99.90
12708;DHT22;6418;50.824;4.718;2023-11-21T01:14:59;8.70;99.90
12708;DHT22;6418;50.824;4.718;2023-11-21T01:17:26;8.70;99.90
12708;DHT22;6418;50.824;4.718;2023-11-21T01:19:53;8.60;99.90
12708;DHT22;6418;50.824;4.718;2023-11-21T01:22:21;8.60;99.90
12708;DHT22;6418;50.824;4.718;2023-11-21T01:24:51;8.50;99.90
12708;DHT22;6418;50.824;4.718;2023-11-21T01:27:18;8.50;99.90
12708;DHT22;6418;50.824;4.718;2023-11-21T01:29:45;8.50;99.90
12708;DHT22;6418;50.824;4.718;2023-11-21T01:32:13;8.40;99.90
12708;DHT22;6418;50.824;4.718;2023-11-21T01:34:40;8.40;99.90
12708;DHT22;6418;50.824;4.718;2023-11-21T01:37:07;8.40;99.90
12708;DHT22;6418;50.824;4.718;2023-11-21T01:39:37;8.30;99.90
12708;DHT22;6418;50.824;4.718;2023-11-21T01:42:05;8.30;99.90
12708;DHT22;6418;50.824;4.718;2023-11-21T01:44:33;8.30;99.90
12708;DHT22;6418;50.824;4.718;2023-11-21T01:47:00;8.30;99.90
12708;DHT22;6418;50.824;4.718;2023-11-21T01:49:32;8.20;99.90
12708;DHT22;6418;50.824;4.718;2023-11-21T01:52:00;8.20;99.90
12708;DHT22;6418;50.824;4.718;2023-11-21T01:54:27;8.20;99.90
12708;DHT22;6418;50.824;4.718;2023-11-21T01:56:57;8.20;99.90
12708;DHT22;6418;50.824;4.718;2023-11-21T01:59:29;8.20;99.90
12708;DHT22;6418;50.824;4.718;2023-11-21T02:02:00;8.20;99.90
12708;DHT22;6418;50.824;4.718;2023-11-21T02:04:28;8.20;99.90
12708;DHT22;6418;50.824;4.718;2023-11-21T02:06:56;8.20;99.90
12708;DHT22;6418;50.824;4.718;2023-11-21T02:09:25;8.20;99.90
12708;DHT22;6418;50.824;4.718;2023-11-21T02:11:52;8.20;99.90
12708;DHT22;6418;50.824;4.718;2023-11-21T02:14:19;8.20;99.90
12708;DHT22;6418;50.824;4.718;2023-11-21T02:16:48;8.30;99.90
12708;DHT22;6418;50.824;4.718;2023-11-21T02:19:18;8.20;99.90
12708;DHT22;6418;50.824;4.718;2023-11-21T02:21:49;8.30;99.90
12708;DHT22;6418;50.824;4.718;2023-11-21T02:24:19;8.30;99.90
12708;DHT22;6418;50.824;4.718;2023-11-21T02:26:46;8.30;99.90
12708;DHT22;6418;50.824;4.718;2023-11-21T02:29:12;8.30;99.90
12708;DHT22;6418;50.824;4.718;2023-11-21T02:31:42;8.40;99.90
12708;DHT22;6418;50.824;4.718;2023-11-21T02:34:13;8.40;99.90
12708;DHT22;6418;50.824;4.718;2023-11-21T02:36:40;8.40;99.90
12708;DHT22;6418;50.824;4.718;2023-11-21T02:39:08;8.40;99.90
12708;DHT22;6418;50.824;4.718;2023-11-21T02:41:36;8.40;99.90
12708;DHT22;6418;50.824;4.718;2023-11-21T02:44:04;8.40;99.90
12708;DHT22;6418;50.824;4.718;2023-11-21T02:46:32;8.40;99.90
12708;DHT22;6418;50.824;4.718;2023-11-21T02:48:59;8.40;99.90
12708;DHT22;6418;50.824;4.718;2023-11-21T02:51:26;8.40;99.90
12708;DHT22;6418;50.824;4.718;2023-11-21T02:53:53;8.40;99.90
12708;DHT22;6418;50.824;4.718;2023-11-21T02:56:24;8.40;99.90
12708;DHT22;6418;50.824;4.718;2023-11-21T02:58:52;8.40;99.90
12708;DHT22;6418;50.824;4.718;2023-11-21T03:01:19;8.40;99.90
12708;DHT22;6418;50.824;4.718;2023-11-21T03:03:46;8.40;99.90
12708;DHT22;6418;50.824;4.718;2023-11-21T03:06:16;8.40;99.90
12708;DHT22;6418;50.824;4.718;2023-11-21T03:08:43;8.40;99.90
12708;DHT22;6418;50.824;4.718;2023-11-21T03:11:10;8.30;99.90
12708;DHT22;6418;50.824;4.718;2023-11-21T03:13:38;8.30;99.90
12708;DHT22;6418;50.824;4.718;2023-11-21T03:16:08;8.40;99.90
12708;DHT22;6418;50.824;4.718;2023-11-21T03:18:35;8.40;99.90
12708;DHT22;6418;50.824;4.718;2023-11-21T03:21:03;8.40;99.90
12708;DHT22;6418;50.824;4.718;2023-11-21T03:23:30;8.40;99.90
12708;DHT22;6418;50.824;4.718;2023-11-21T03:25:57;8.30;99.90
12708;DHT22;6418;50.824;4.718;2023-11-21T03:28:23;8.40;99.90
12708;DHT22;6418;50.824;4.718;2023-11-21T03:30:50;8.40;99.90
12708;DHT22;6418;50.824;4.718;2023-11-21T03:33:19;8.40;99.90
12708;DHT22;6418;50.824;4.718;2023-11-21T03:35:45;8.40;99.90
12708;DHT22;6418;50.824;4.718;2023-11-21T03:38:12;8.40;99.90
12708;DHT22;6418;50.824;4.718;2023-11-21T03:40:39;8.40;99.90
12708;DHT22;6418;50.824;4.718;2023-11-21T03:43:06;8.40;99.90
12708;DHT22;6418;50.824;4.718;2023-11-21T03:45:33;8.40;99.90
12708;DHT22;6418;50.824;4.718;2023-11-21T03:48:00;8.40;99.90
12708;DHT22;6418;50.824;4.718;2023-11-21T03:50:29;8.40;99.90
12708;DHT22;6418;50.824;4.718;2023-11-21T03:52:57;8.40;99.90
12708;DHT22;6418;50.824;4.718;2023-11-21T03:55:24;8.30;99.90
12708;DHT22;6418;50.824;4.718;2023-11-21T03:57:51;8.40;99.90
12708;DHT22;6418;50.824;4.718;2023-11-21T04:00:18;8.40;99.90
12708;DHT22;6418;50.824;4.718;2023-11-21T04:02:46;8.40;99.90
12708;DHT22;6418;50.824;4.718;2023-11-21T04:05:13;8.50;99.90
12708;DHT22;6418;50.824;4.718;2023-11-21T04:07:41;8.40;99.90
12708;DHT22;6418;50.824;4.718;2023-11-21T04:10:09;8.40;99.90
12708;DHT22;6418;50.824;4.718;2023-11-21T04:12:38;8.40;99.90
12708;DHT22;6418;50.824;4.718;2023-11-21T04:15:06;8.50;99.90
12708;DHT22;6418;50.824;4.718;2023-11-21T04:17:34;8.40;99.90
12708;DHT22;6418;50.824;4.718;2023-11-21T04:20:02;8.50;99.90
12708;DHT22;6418;50.824;4.718;2023-11-21T04:22:29;8.50;99.90
12708;DHT22;6418;50.824;4.718;2023-11-21T04:24:57;8.40;99.90
12708;DHT22;6418;50.824;4.718;2023-11-21T04:27:24;8.50;99.90
12708;DHT22;6418;50.824;4.718;2023-11-21T04:29:51;8.50;99.90
12708;DHT22;6418;50.824;4.718;2023-11-21T04:32:18;8.50;99.90
12708;DHT22;6418;50.824;4.718;2023-11-21T04:34:44;8.50;99.90
12708;DHT22;6418;50.824;4.718;2023-11-21T04:37:11;8.50;99.90
12708;DHT22;6418;50.824;4.718;2023-11-21T04:39:38;8.50;99.90
12708;DHT22;6418;50.824;4.718;2023-11-21T04:42:07;8.50;99.90
12708;DHT22;6418;50.824;4.718;2023-11-21T04:44:34;8.50;99.90
12708;DHT22;6418;50.824;4.718;2023-11-21T04:47:00;8.50;99.90
12708;DHT22;6418;50.824;4.718;2023-11-21T04:49:30;8.50;99.90
12708;DHT22;6418;50.824;4.718;2023-11-21T04:51:57;8.50;99.90
12708;DHT22;6418;50.824;4.718;2023-11-21T04:54:23;8.50;99.90
12708;DHT22;6418;50.824;4.718;2023-11-21T04:56:50;8.50;99.90
12708;DHT22;6418;50.824;4.718;2023-11-21T04:59:18;8.50;99.90
12708;DHT22;6418;50.824;4.718;2023-11-21T05:01:45;8.50;99.90
12708;DHT22;6418;50.824;4.718;2023-11-21T05:04:12;8.50;99.90
12708;DHT22;6418;50.824;4.718;2023-11-21T05:06:40;8.50;99.90
12708;DHT22;6418;50.824;4.718;2023-11-21T05:09:07;8.50;99.90
12708;DHT22;6418;50.824;4.718;2023-11-21T05:11:37;8.50;99.90
12708;DHT22;6418;50.824;4.718;2023-11-21T05:14:06;8.50;99.90
12708;DHT22;6418;50.824;4.718;2023-11-21T05:16:36;8.60;99.90
12708;DHT22;6418;50.824;4.718;2023-11-21T05:19:03;8.50;99.90
12708;DHT22;6418;50.824;4.718;2023-11-21T05:21:31;8.60;99.90
12708;DHT22;6418;50.824;4.718;2023-11-21T05:23:58;8.60;99.90
12708;DHT22;6418;50.824;4.718;2023-11-21T05:26:25;8.50;99.90
12708;DHT22;6418;50.824;4.718;2023-11-21T05:28:52;8.60;99.90
12708;DHT22;6418;50.824;4.718;2023-11-21T05:31:19;8.60;99.90
12708;DHT22;6418;50.824;4.718;2023-11-21T05:33:47;8.60;99.90
12708;DHT22;6418;50.824;4.718;2023-11-21T05:36:14;8.50;99.90
12708;DHT22;6418;50.824;4.718;2023-11-21T05:38:41;8.60;99.90
12708;DHT22;6418;50.824;4.718;2023-11-21T05:41:08;8.60;99.90
12708;DHT22;6418;50.824;4.718;2023-11-21T05:43:36;8.60;99.90
12708;DHT22;6418;50.824;4.718;2023-11-21T05:46:03;8.60;99.90
12708;DHT22;6418;50.824;4.718;2023-11-21T05:48:31;8.60;99.90
12708;DHT22;6418;50.824;4.718;2023-11-21T05:50:59;8.60;99.90
12708;DHT22;6418;50.824;4.718;2023-11-21T05:53:27;8.60;99.90
12708;DHT22;6418;50.824;4.718;2023-11-21T05:55:54;8.70;99.90
12708;DHT22;6418;50.824;4.718;2023-11-21T05:58:21;8.60;99.90
12708;DHT22;6418;50.824;4.718;2023-11-21T06:00:48;8.60;99.90
12708;DHT22;6418;50.824;4.718;2023-11-21T06:03:14;8.60;99.90
12708;DHT22;6418;50.824;4.718;2023-11-21T06:05:42;8.70;99.90
12708;DHT22;6418;50.824;4.718;2023-11-21T06:08:11;8.70;99.90
12708;DHT22;6418;50.824;4.718;2023-11-21T06:10:38;8.70;99.90
12708;DHT22;6418;50.824;4.718;2023-11-21T06:13:05;8.70;99.90
12708;DHT22;6418;50.824;4.718;2023-11-21T06:15:33;8.70;99.90
12708;DHT22;6418;50.824;4.718;2023-11-21T06:18:00;8.70;99.90
12708;DHT22;6418;50.824;4.718;2023-11-21T06:20:27;8.70;99.90
12708;DHT22;6418;50.824;4.718;2023-11-21T06:22:54;8.70;99.90
12708;DHT22;6418;50.824;4.718;2023-11-21T06:25:22;8.70;99.90
12708;DHT22;6418;50.824;4.718;2023-11-21T06:27:50;8.70;99.90
12708;DHT22;6418;50.824;4.718;2023-11-21T06:30:19;8.70;99.90
12708;DHT22;6418;50.824;4.718;2023-11-21T06:32:47;8.70;99.90
12708;DHT22;6418;50.824;4.718;2023-11-21T06:35:15;8.70;99.90
12708;DHT22;6418;50.824;4.718;2023-11-21T06:37:42;8.80;99.90
12708;DHT22;6418;50.824;4.718;2023-11-21T06:40:13;8.80;99.90
12708;DHT22;6418;50.824;4.718;2023-11-21T06:42:42;8.70;99.90
12708;DHT22;6418;50.824;4.718;2023-11-21T06:45:10;8.70;99.90
12708;DHT22;6418;50.824;4.718;2023-11-21T06:47:37;8.80;99.90
12708;DHT22;6418;50.824;4.718;2023-11-21T06:50:05;8.80;99.90
12708;DHT22;6418;50.824;4.718;2023-11-21T06:52:32;8.80;99.90
12708;DHT22;6418;50.824;4.718;2023-11-21T06:54:59;8.80;99.90
12708;DHT22;6418;50.824;4.718;2023-11-21T06:57:26;8.80;99.90
12708;DHT22;6418;50.824;4.718;2023-11-21T06:59:54;8.80;99.90
12708;DHT22;6418;50.824;4.718;2023-11-21T07:02:23;8.80;99.90
12708;DHT22;6418;50.824;4.718;2023-11-21T07:04:49;8.80;99.90
12708;DHT22;6418;50.824;4.718;2023-11-21T07:07:17;8.80;99.90
12708;DHT22;6418;50.824;4.718;2023-11-21T07:09:44;8.80;99.90
12708;DHT22;6418;50.824;4.718;2023-11-21T07:12:11;8.80;99.90
12708;DHT22;6418;50.824;4.718;2023-11-21T07:14:38;8.80;99.90
12708;DHT22;6418;50.824;4.718;2023-11-21T07:17:10;8.80;99.90
12708;DHT22;6418;50.824;4.718;2023-11-21T07:19:37;8.90;99.90
12708;DHT22;6418;50.824;4.718;2023-11-21T07:22:05;8.80;99.90
12708;DHT22;6418;50.824;4.718;2023-11-21T07:24:32;8.90;99.90
12708;DHT22;6418;50.824;4.718;2023-11-21T07:26:58;8.90;99.90
12708;DHT22;6418;50.824;4.718;2023-11-21T07:29:26;8.90;99.90
12708;DHT22;6418;50.824;4.718;2023-11-21T07:31:55;8.90;99.90
12708;DHT22;6418;50.824;4.718;2023-11-21T07:34:23;8.90;99.90
12708;DHT22;6418;50.824;4.718;2023-11-21T07:36:50;8.90;99.90
12708;DHT22;6418;50.824;4.718;2023-11-21T07:39:17;8.90;99.90
12708;DHT22;6418;50.824;4.718;2023-11-21T07:41:44;8.90;99.90
12708;DHT22;6418;50.824;4.718;2023-11-21T07:44:14;9.00;99.90
12708;DHT22;6418;50.824;4.718;2023-11-21T07:46:42;9.00;99.90
12708;DHT22;6418;50.824;4.718;2023-11-21T07:49:08;9.00;99.90
12708;DHT22;6418;50.824;4.718;2023-11-21T07:51:37;9.10;99.90
12708;DHT22;6418;50.824;4.718;2023-11-21T07:54:04;9.10;99.90
12708;DHT22;6418;50.824;4.718;2023-11-21T07:56:31;9.10;99.90
12708;DHT22;6418;50.824;4.718;2023-11-21T07:58:58;9.10;99.90
12708;DHT22;6418;50.824;4.718;2023-11-21T08:01:25;9.10;99.90
12708;DHT22;6418;50.824;4.718;2023-11-21T08:03:53;9.10;99.90
12708;DHT22;6418;50.824;4.718;2023-11-21T08:06:22;9.10;99.90
12708;DHT22;6418;50.824;4.718;2023-11-21T08:08:51;9.20;99.90
12708;DHT22;6418;50.824;4.718;2023-11-21T08:11:18;9.20;99.90
12708;DHT22;6418;50.824;4.718;2023-11-21T08:13:47;9.20;99.90
12708;DHT22;6418;50.824;4.718;2023-11-21T08:16:14;9.20;99.90
12708;DHT22;6418;50.824;4.718;2023-11-21T08:18:42;9.20;99.90
12708;DHT22;6418;50.824;4.718;2023-11-21T08:21:09;9.30;99.90
12708;DHT22;6418;50.824;4.718;2023-11-21T08:23:37;9.30;99.90
12708;DHT22;6418;50.824;4.718;2023-11-21T08:26:06;9.30;99.90
12708;DHT22;6418;50.824;4.718;2023-11-21T08:28:34;9.30;99.90
12708;DHT22;6418;50.824;4.718;2023-11-21T08:31:01;9.30;99.90
12708;DHT22;6418;50.824;4.718;2023-11-21T08:33:28;9.30;99.90
12708;DHT22;6418;50.824;4.718;2023-11-21T08:35:55;9.40;99.90
12708;DHT22;6418;50.824;4.718;2023-11-21T08:38:22;9.40;99.90
12708;DHT22;6418;50.824;4.718;2023-11-21T08:40:49;9.40;99.90
12708;DHT22;6418;50.824;4.718;2023-11-21T08:43:17;9.40;99.90
12708;DHT22;6418;50.824;4.718;2023-11-21T08:45:45;9.40;99.90
12708;DHT22;6418;50.824;4.718;2023-11-21T08:48:12;9.40;99.90
12708;DHT22;6418;50.824;4.718;2023-11-21T08:50:39;9.40;99.90
12708;DHT22;6418;50.824;4.718;2023-11-21T08:53:06;9.50;99.90
12708;DHT22;6418;50.824;4.718;2023-11-21T08:55:33;9.50;99.90
12708;DHT22;6418;50.824;4.718;2023-11-21T08:58:02;9.50;99.90
12708;DHT22;6418;50.824;4.718;2023-11-21T09:00:32;9.50;99.90
12708;DHT22;6418;50.824;4.718;2023-11-21T09:02:58;9.50;99.90
12708;DHT22;6418;50.824;4.718;2023-11-21T09:05:27;9.50;99.90
12708;DHT22;6418;50.824;4.718;2023-11-21T09:07:54;9.60;99.90
12708;DHT22;6418;50.824;4.718;2023-11-21T09:10:21;9.60;99.90
12708;DHT22;6418;50.824;4.718;2023-11-21T09:12:49;9.60;99.90
12708;DHT22;6418;50.824;4.718;2023-11-21T09:15:17;9.70;99.90
12708;DHT22;6418;50.824;4.718;2023-11-21T09:17:47;9.70;99.90
12708;DHT22;6418;50.824;4.718;2023-11-21T09:20:14;9.70;99.90
12708;DHT22;6418;50.824;4.718;2023-11-21T09:22:41;9.70;99.90
12708;DHT22;6418;50.824;4.718;2023-11-21T09:25:10;9.80;99.90
12708;DHT22;6418;50.824;4.718;2023-11-21T09:27:37;9.80;99.90
12708;DHT22;6418;50.824;4.718;2023-11-21T09:30:05;9.80;99.90
12708;DHT22;6418;50.824;4.718;2023-11-21T09:32:34;9.90;99.90
12708;DHT22;6418;50.824;4.718;2023-11-21T09:35:04;9.90;99.90
12708;DHT22;6418;50.824;4.718;2023-11-21T09:37:33;9.90;99.90
12708;DHT22;6418;50.824;4.718;2023-11-21T09:40:01;9.90;99.90
12708;DHT22;6418;50.824;4.718;2023-11-21T09:42:32;9.90;99.90
12708;DHT22;6418;50.824;4.718;2023-11-21T09:45:05;10.00;99.90
12708;DHT22;6418;50.824;4.718;2023-11-21T09:47:38;10.00;99.90
12708;DHT22;6418;50.824;4.718;2023-11-21T09:50:07;10.00;99.90
12708;DHT22;6418;50.824;4.718;2023-11-21T09:52:44;10.10;99.90
12708;DHT22;6418;50.824;4.718;2023-11-21T09:55:15;10.10;99.90
12708;DHT22;6418;50.824;4.718;2023-11-21T09:57:45;10.10;99.90
12708;DHT22;6418;50.824;4.718;2023-11-21T10:00:14;10.10;99.90
12708;DHT22;6418;50.824;4.718;2023-11-21T10:02:43;10.20;99.90
12708;DHT22;6418;50.824;4.718;2023-11-21T10:05:12;10.20;99.90
12708;DHT22;6418;50.824;4.718;2023-11-21T10:07:39;10.20;99.90
12708;DHT22;6418;50.824;4.718;2023-11-21T10:10:08;10.20;99.90
12708;DHT22;6418;50.824;4.718;2023-11-21T10:12:35;10.20;99.90
12708;DHT22;6418;50.824;4.718;2023-11-21T10:15:08;10.20;99.90
12708;DHT22;6418;50.824;4.718;2023-11-21T10:17:38;10.20;99.90
12708;DHT22;6418;50.824;4.718;2023-11-21T10:20:12;10.20;99.90
12708;DHT22;6418;50.824;4.718;2023-11-21T10:22:40;10.30;99.90
12708;DHT22;6418;50.824;4.718;2023-11-21T10:25:08;10.30;99.90
12708;DHT22;6418;50.824;4.718;2023-11-21T10:27:35;10.40;99.90
12708;DHT22;6418;50.824;4.718;2023-11-21T10:30:05;10.40;99.90
12708;DHT22;6418;50.824;4.718;2023-11-21T10:32:33;10.40;99.90
12708;DHT22;6418;50.824;4.718;2023-11-21T10:35:00;10.40;99.90
12708;DHT22;6418;50.824;4.718;2023-11-21T10:37:33;10.40;99.90
12708;DHT22;6418;50.824;4.718;2023-11-21T10:40:00;10.40;99.90
12708;DHT22;6418;50.824;4.718;2023-11-21T10:42:27;10.40;99.90
12708;DHT22;6418;50.824;4.718;2023-11-21T10:44:55;10.40;99.90
12708;DHT22;6418;50.824;4.718;2023-11-21T10:47:22;10.40;99.90
12708;DHT22;6418;50.824;4.718;2023-11-21T10:49:49;10.40;99.90
12708;DHT22;6418;50.824;4.718;2023-11-21T10:52:19;10.40;99.90
12708;DHT22;6418;50.824;4.718;2023-11-21T10:54:47;10.40;99.90
12708;DHT22;6418;50.824;4.718;2023-11-21T10:57:18;10.40;99.90
12708;DHT22;6418;50.824;4.718;2023-11-21T10:59:47;10.40;99.90
12708;DHT22;6418;50.824;4.718;2023-11-21T11:02:22;10.40;99.90
12708;DHT22;6418;50.824;4.718;2023-11-21T11:04:52;10.40;99.90
12708;DHT22;6418;50.824;4.718;2023-11-21T11:07:21;10.50;99.90
12708;DHT22;6418;50.824;4.718;2023-11-21T11:09:50;10.50;99.90
12708;DHT22;6418;50.824;4.718;2023-11-21T11:12:17;10.50;99.90
12708;DHT22;6418;50.824;4.718;2023-11-21T11:14:44;10.50;99.90
12708;DHT22;6418;50.824;4.718;2023-11-21T11:17:12;10.50;99.90
12708;DHT22;6418;50.824;4.718;2023-11-21T11:19:40;10.60;99.90
12708;DHT22;6418;50.824;4.718;2023-11-21T11:22:16;10.50;99.90
12708;DHT22;6418;50.824;4.718;2023-11-21T11:25:03;10.50;99.90
12708;DHT22;6418;50.824;4.718;2023-11-21T11:27:48;10.60;99.90
12708;DHT22;6418;50.824;4.718;2023-11-21T11:30:28;10.60;99.90
12708;DHT22;6418;50.824;4.718;2023-11-21T11:33:06;10.60;99.90
12708;DHT22;6418;50.824;4.718;2023-11-21T11:35:37;10.50;99.90
12708;DHT22;6418;50.824;4.718;2023-11-21T11:38:05;10.60;99.90
12708;DHT22;6418;50.824;4.718;2023-11-21T11:40:46;10.60;99.90
12708;DHT22;6418;50.824;4.718;2023-11-21T11:43:13;10.60;99.90
12708;DHT22;6418;50.824;4.718;2023-11-21T11:45:40;10.60;99.90
12708;DHT22;6418;50.824;4.718;2023-11-21T11:48:08;10.70;99.90
12708;DHT22;6418;50.824;4.718;2023-11-21T11:50:42;10.70;99.90
12708;DHT22;6418;50.824;4.718;2023-11-21T11:53:33;10.60;99.90
12708;DHT22;6418;50.824;4.718;2023-11-21T11:56:24;10.60;99.90
12708;DHT22;6418;50.824;4.718;2023-11-21T11:58:53;10.60;99.90
12708;DHT22;6418;50.824;4.718;2023-11-21T12:01:20;10.60;99.90
12708;DHT22;6418;50.824;4.718;2023-11-21T12:04:25;10.60;99.90
12708;DHT22;6418;50.824;4.718;2023-11-21T12:07:02;10.60;99.90
12708;DHT22;6418;50.824;4.718;2023-11-21T12:09:31;10.60;99.90
12708;DHT22;6418;50.824;4.718;2023-11-21T12:12:00;10.60;99.90
12708;DHT22;6418;50.824;4.718;2023-11-21T12:14:28;10.60;99.90
12708;DHT22;6418;50.824;4.718;2023-11-21T12:16:55;10.60;99.90
12708;DHT22;6418;50.824;4.718;2023-11-21T12:19:22;10.70;99.90
12708;DHT22;6418;50.824;4.718;2023-11-21T12:21:49;10.70;99.90
12708;DHT22;6418;50.824;4.718;2023-11-21T12:24:17;10.70;99.90
12708;DHT22;6418;50.824;4.718;2023-11-21T12:26:44;10.70;99.90
12708;DHT22;6418;50.824;4.718;2023-11-21T12:29:13;10.80;99.90
12708;DHT22;6418;50.824;4.718;2023-11-21T12:31:40;10.80;99.90
12708;DHT22;6418;50.824;4.718;2023-11-21T12:34:07;10.90;99.90
12708;DHT22;6418;50.824;4.718;2023-11-21T12:36:37;10.90;99.90
12708;DHT22;6418;50.824;4.718;2023-11-21T12:39:04;11.00;99.90
12708;DHT22;6418;50.824;4.718;2023-11-21T12:41:31;10.90;99.90
12708;DHT22;6418;50.824;4.718;2023-11-21T12:43:58;11.00;99.90
12708;DHT22;6418;50.824;4.718;2023-11-21T12:46:26;11.00;99.90
12708;DHT22;6418;50.824;4.718;2023-11-21T12:48:56;11.00;99.90
12708;DHT22;6418;50.824;4.718;2023-11-21T12:51:24;11.10;99.90
12708;DHT22;6418;50.824;4.718;2023-11-21T12:53:51;11.10;99.90
12708;DHT22;6418;50.824;4.718;2023-11-21T12:56:19;11.10;99.90
12708;DHT22;6418;50.824;4.718;2023-11-21T12:58:49;11.10;99.90
12708;DHT22;6418;50.824;4.718;2023-11-21T13:01:16;11.10;99.90
12708;DHT22;6418;50.824;4.718;2023-11-21T13:03:47;11.10;99.90
12708;DHT22;6418;50.824;4.718;2023-11-21T13:06:18;11.10;99.90
12708;DHT22;6418;50.824;4.718;2023-11-21T13:08:45;11.10;99.90
12708;DHT22;6418;50.824;4.718;2023-11-21T13:11:13;11.10;99.90
12708;DHT22;6418;50.824;4.718;2023-11-21T13:13:41;11.10;99.90
12708;DHT22;6418;50.824;4.718;2023-11-21T13:16:09;11.10;99.90
12708;DHT22;6418;50.824;4.718;2023-11-21T13:18:36;11.10;99.90
12708;DHT22;6418;50.824;4.718;2023-11-21T13:21:08;11.10;99.90
12708;DHT22;6418;50.824;4.718;2023-11-21T13:23:39;11.10;99.90
12708;DHT22;6418;50.824;4.718;2023-11-21T13:26:07;11.00;99.90
12708;DHT22;6418;50.824;4.718;2023-11-21T13:28:35;11.10;99.90
12708;DHT22;6418;50.824;4.718;2023-11-21T13:31:04;11.00;99.90
12708;DHT22;6418;50.824;4.718;2023-11-21T13:33:35;11.10;99.90
12708;DHT22;6418;50.824;4.718;2023-11-21T13:36:04;11.10;99.90
12708;DHT22;6418;50.824;4.718;2023-11-21T13:38:34;11.10;99.90
12708;DHT22;6418;50.824;4.718;2023-11-21T13:41:03;11.10;99.90
12708;DHT22;6418;50.824;4.718;2023-11-21T13:43:33;11.20;99.90
12708;DHT22;6418;50.824;4.718;2023-11-21T13:45:59;11.20;99.90
12708;DHT22;6418;50.824;4.718;2023-11-21T13:48:29;11.20;99.90
12708;DHT22;6418;50.824;4.718;2023-11-21T13:51:06;11.20;99.90
12708;DHT22;6418;50.824;4.718;2023-11-21T13:53:43;11.10;99.90
12708;DHT22;6418;50.824;4.718;2023-11-21T13:56:11;11.10;99.90
12708;DHT22;6418;50.824;4.718;2023-11-21T13:58:41;11.00;99.90
12708;DHT22;6418;50.824;4.718;2023-11-21T14:01:13;11.00;99.90
12708;DHT22;6418;50.824;4.718;2023-11-21T14:03:58;10.90;99.90
12708;DHT22;6418;50.824;4.718;2023-11-21T14:06:34;10.90;99.90
12708;DHT22;6418;50.824;4.718;2023-11-21T14:09:12;10.80;99.90
12708;DHT22;6418;50.824;4.718;2023-11-21T14:11:50;10.80;99.90
12708;DHT22;6418;50.824;4.718;2023-11-21T14:14:19;10.80;99.90
12708;DHT22;6418;50.824;4.718;2023-11-21T14:16:46;10.80;99.90
12708;DHT22;6418;50.824;4.718;2023-11-21T14:19:13;10.80;99.90
12708;DHT22;6418;50.824;4.718;2023-11-21T14:21:43;10.80;99.90
12708;DHT22;6418;50.824;4.718;2023-11-21T14:24:12;10.70;99.90
12708;DHT22;6418;50.824;4.718;2023-11-21T14:26:43;10.70;99.90
12708;DHT22;6418;50.824;4.718;2023-11-21T14:29:11;10.80;99.90
12708;DHT22;6418;50.824;4.718;2023-11-21T14:31:40;10.80;99.90
12708;DHT22;6418;50.824;4.718;2023-11-21T14:34:07;10.70;99.90
12708;DHT22;6418;50.824;4.718;2023-11-21T14:36:34;10.70;99.90
12708;DHT22;6418;50.824;4.718;2023-11-21T14:39:03;10.70;99.90
12708;DHT22;6418;50.824;4.718;2023-11-21T14:41:34;10.70;99.90
12708;DHT22;6418;50.824;4.718;2023-11-21T14:44:01;10.80;99.90
12708;DHT22;6418;50.824;4.718;2023-11-21T14:46:29;10.80;99.90
12708;DHT22;6418;50.824;4.718;2023-11-21T14:48:56;10.80;99.90
12708;DHT22;6418;50.824;4.718;2023-11-21T14:51:33;10.80;99.90
12708;DHT22;6418;50.824;4.718;2023-11-21T14:54:06;10.80;99.90
12708;DHT22;6418;50.824;4.718;2023-11-21T14:56:34;10.80;99.90
12708;DHT22;6418;50.824;4.718;2023-11-21T14:59:01;10.80;99.90
12708;DHT22;6418;50.824;4.718;2023-11-21T15:01:34;10.80;99.90
12708;DHT22;6418;50.824;4.718;2023-11-21T15:04:11;10.80;99.90
12708;DHT22;6418;50.824;4.718;2023-11-21T15:06:50;10.80;99.90
12708;DHT22;6418;50.824;4.718;2023-11-21T15:09:18;10.80;99.90
12708;DHT22;6418;50.824;4.718;2023-11-21T15:12:02;10.80;99.90
12708;DHT22;6418;50.824;4.718;2023-11-21T15:14:40;10.80;99.90
12708;DHT22;6418;50.824;4.718;2023-11-21T15:17:06;10.70;99.90
12708;DHT22;6418;50.824;4.718;2023-11-21T15:19:33;10.70;99.90
12708;DHT22;6418;50.824;4.718;2023-11-21T15:22:01;10.70;99.90
12708;DHT22;6418;50.824;4.718;2023-11-21T15:24:28;10.60;99.90
12708;DHT22;6418;50.824;4.718;2023-11-21T15:26:55;10.60;99.90
12708;DHT22;6418;50.824;4.718;2023-11-21T15:29:23;10.50;99.90
12708;DHT22;6418;50.824;4.718;2023-11-21T15:31:51;10.50;99.90
12708;DHT22;6418;50.824;4.718;2023-11-21T15:34:21;10.50;99.90
12708;DHT22;6418;50.824;4.718;2023-11-21T15:36:48;10.50;99.90
12708;DHT22;6418;50.824;4.718;2023-11-21T15:39:18;10.50;99.90
12708;DHT22;6418;50.824;4.718;2023-11-21T15:41:47;10.50;99.90
12708;DHT22;6418;50.824;4.718;2023-11-21T15:44:14;10.50;99.90
12708;DHT22;6418;50.824;4.718;2023-11-21T15:46:42;10.50;99.90
12708;DHT22;6418;50.824;4.718;2023-11-21T15:49:10;10.50;99.90
12708;DHT22;6418;50.824;4.718;2023-11-21T15:51:39;10.50;99.90
12708;DHT22;6418;50.824;4.718;2023-11-21T15:54:08;10.50;99.90
12708;DHT22;6418;50.824;4.718;2023-11-21T15:56:35;10.50;99.90
12708;DHT22;6418;50.824;4.718;2023-11-21T15:59:02;10.50;99.90
12708;DHT22;6418;50.824;4.718;2023-11-21T16:01:30;10.50;99.90
12708;DHT22;6418;50.824;4.718;2023-11-21T16:03:58;10.50;99.90